sensor_id;sensor_type;location;lat;lon;timestamp;pressure;altitude;pressure_sealevel;temperature;humidity
7524;BME280;3803;51.666;7.630;2023-06-26T00:00:12;100688.22;;;21.32;69.13
7524;BME280;3803;51.666;7.630;2023-06-26T00:00:32;100687.31;;;21.32;69.01
7524;BME280;3803;51.666;7.630;2023-06-26T00:00:53;100679.44;;;21.29;69.25
7524;BME280;3803;51.666;7.630;2023-06-26T00:01:14;100685.53;;;21.34;69.30
7524;BME280;3803;51.666;7.630;2023-06-26T00:01:34;100686.47;;;21.31;69.20
7524;BME280;3803;51.666;7.630;2023-06-26T00:02:05;100689.94;;;21.35;69.15
7524;BME280;3803;51.666;7.630;2023-06-26T00:02:26;100689.13;;;21.30;68.91
7524;BME280;3803;51.666;7.630;2023-06-26T00:02:46;100690.88;;;21.31;69.10
7524;BME280;3803;51.666;7.630;2023-06-26T00:03:07;100680.34;;;21.26;68.99
7524;BME280;3803;51.666;7.630;2023-06-26T00:03:28;100677.66;;;21.29;68.76
7524;BME280;3803;51.666;7.630;2023-06-26T00:03:49;100681.22;;;21.28;68.81
7524;BME280;3803;51.666;7.630;2023-06-26T00:04:09;100684.75;;;21.27;68.76
7524;BME280;3803;51.666;7.630;2023-06-26T00:04:34;100684.75;;;21.27;68.77
7524;BME280;3803;51.666;7.630;2023-06-26T00:04:57;100681.19;;;21.30;68.54
7524;BME280;3803;51.666;7.630;2023-06-26T00:05:18;100677.75;;;21.25;68.71
7524;BME280;3803;51.666;7.630;2023-06-26T00:05:38;100671.50;;;21.27;68.48
7524;BME280;3803;51.666;7.630;2023-06-26T00:05:59;100679.50;;;21.24;68.65
7524;BME280;3803;51.666;7.630;2023-06-26T00:06:21;100673.38;;;21.20;68.60
7524;BME280;3803;51.666;7.630;2023-06-26T00:06:44;100679.59;;;21.21;68.75
7524;BME280;3803;51.666;7.630;2023-06-26T00:07:05;100686.56;;;21.27;68.70
7524;BME280;3803;51.666;7.630;2023-06-26T00:07:26;100672.50;;;21.20;68.81
7524;BME280;3803;51.666;7.630;2023-06-26T00:07:46;100694.50;;;21.27;68.80
7524;BME280;3803;51.666;7.630;2023-06-26T00:08:07;100677.78;;;21.23;68.98
7524;BME280;3803;51.666;7.630;2023-06-26T00:08:28;100676.06;;;21.19;68.88
7524;BME280;3803;51.666;7.630;2023-06-26T00:08:49;100688.38;;;21.23;68.75
7524;BME280;3803;51.666;7.630;2023-06-26T00:09:10;100681.25;;;21.25;68.86
7524;BME280;3803;51.666;7.630;2023-06-26T00:09:32;100678.69;;;21.20;68.83
7524;BME280;3803;51.666;7.630;2023-06-26T00:09:53;100683.97;;;21.22;68.82
7524;BME280;3803;51.666;7.630;2023-06-26T00:10:14;100684.94;;;21.18;68.73
7524;BME280;3803;51.666;7.630;2023-06-26T00:10:34;100674.47;;;21.08;68.72
7524;BME280;3803;51.666;7.630;2023-06-26T00:10:55;100685.03;;;21.12;68.83
7524;BME280;3803;51.666;7.630;2023-06-26T00:11:16;100686.84;;;21.09;69.01
7524;BME280;3803;51.666;7.630;2023-06-26T00:11:37;100678.91;;;21.08;68.95
7524;BME280;3803;51.666;7.630;2023-06-26T00:11:58;100678.03;;;21.07;68.93
7524;BME280;3803;51.666;7.630;2023-06-26T00:12:19;100676.28;;;21.06;68.75
7524;BME280;3803;51.666;7.630;2023-06-26T00:12:40;100672.81;;;21.04;68.76
7524;BME280;3803;51.666;7.630;2023-06-26T00:13:00;100680.63;;;21.10;68.75
7524;BME280;3803;51.666;7.630;2023-06-26T00:13:23;100681.53;;;21.09;68.58
7524;BME280;3803;51.666;7.630;2023-06-26T00:13:44;100685.97;;;21.09;68.53
7524;BME280;3803;51.666;7.630;2023-06-26T00:14:04;100681.59;;;21.06;68.63
7524;BME280;3803;51.666;7.630;2023-06-26T00:14:25;100683.34;;;21.07;68.49
7524;BME280;3803;51.666;7.630;2023-06-26T00:14:46;100672.84;;;21.01;68.41
7524;BME280;3803;51.666;7.630;2023-06-26T00:15:07;100674.59;;;21.02;68.51
7524;BME280;3803;51.666;7.630;2023-06-26T00:15:28;100683.34;;;21.07;68.69
7524;BME280;3803;51.666;7.630;2023-06-26T00:15:51;100682.53;;;21.04;68.65
7524;BME280;3803;51.666;7.630;2023-06-26T00:16:12;100672.81;;;21.04;68.68
7524;BME280;3803;51.666;7.630;2023-06-26T00:16:33;100677.19;;;21.05;68.67
7524;BME280;3803;51.666;7.630;2023-06-26T00:16:53;100688.66;;;21.07;69.04
7524;BME280;3803;51.666;7.630;2023-06-26T00:17:14;100674.56;;;21.05;68.86
7524;BME280;3803;51.666;7.630;2023-06-26T00:17:35;100678.03;;;21.07;68.92
7524;BME280;3803;51.666;7.630;2023-06-26T00:18:00;100671.03;;;21.03;68.90
7524;BME280;3803;51.666;7.630;2023-06-26T00:18:21;100678.09;;;21.04;68.72
7524;BME280;3803;51.666;7.630;2023-06-26T00:18:41;100684.28;;;21.05;68.56
7524;BME280;3803;51.666;7.630;2023-06-26T00:19:02;100680.78;;;21.03;68.76
7524;BME280;3803;51.666;7.630;2023-06-26T00:19:22;100671.09;;;21.00;68.67
7524;BME280;3803;51.666;7.630;2023-06-26T00:19:43;100679.88;;;21.02;68.56
7524;BME280;3803;51.666;7.630;2023-06-26T00:20:04;100675.50;;;21.00;68.86
7524;BME280;3803;51.666;7.630;2023-06-26T00:20:27;100682.53;;;21.02;68.70
7524;BME280;3803;51.666;7.630;2023-06-26T00:20:47;100678.13;;;21.01;68.51
7524;BME280;3803;51.666;7.630;2023-06-26T00:21:08;100686.09;;;21.03;68.89
7524;BME280;3803;51.666;7.630;2023-06-26T00:21:29;100665.88;;;20.94;68.80
7524;BME280;3803;51.666;7.630;2023-06-26T00:21:49;100679.94;;;20.99;68.71
7524;BME280;3803;51.666;7.630;2023-06-26T00:22:10;100679.94;;;21.01;68.84
7524;BME280;3803;51.666;7.630;2023-06-26T00:22:31;100672.91;;;20.96;68.66
7524;BME280;3803;51.666;7.630;2023-06-26T00:22:52;100666.78;;;20.93;68.79
7524;BME280;3803;51.666;7.630;2023-06-26T00:23:16;100671.16;;;20.97;68.83
7524;BME280;3803;51.666;7.630;2023-06-26T00:23:37;100681.69;;;21.00;69.10
7524;BME280;3803;51.666;7.630;2023-06-26T00:23:58;100674.69;;;20.96;68.93
7524;BME280;3803;51.666;7.630;2023-06-26T00:24:19;100681.69;;;21.00;68.85
7524;BME280;3803;51.666;7.630;2023-06-26T00:24:54;100677.31;;;20.98;69.05
7524;BME280;3803;51.666;7.630;2023-06-26T00:25:15;100673.81;;;20.95;68.99
7524;BME280;3803;51.666;7.630;2023-06-26T00:25:36;100664.06;;;20.96;69.15
7524;BME280;3803;51.666;7.630;2023-06-26T00:25:56;100670.25;;;20.98;69.39
7524;BME280;3803;51.666;7.630;2023-06-26T00:26:17;100676.41;;;21.00;69.33
7524;BME280;3803;51.666;7.630;2023-06-26T00:26:38;100679.03;;;21.00;69.43
7524;BME280;3803;51.666;7.630;2023-06-26T00:26:58;100666.72;;;20.96;69.27
7524;BME280;3803;51.666;7.630;2023-06-26T00:27:20;100670.25;;;20.96;69.59
7524;BME280;3803;51.666;7.630;2023-06-26T00:27:40;100659.72;;;20.93;69.38
7524;BME280;3803;51.666;7.630;2023-06-26T00:28:01;100672.03;;;20.96;69.48
7524;BME280;3803;51.666;7.630;2023-06-26T00:28:22;100671.09;;;20.99;69.29
7524;BME280;3803;51.666;7.630;2023-06-26T00:28:42;100657.94;;;20.94;69.37
7524;BME280;3803;51.666;7.630;2023-06-26T00:29:03;100672.91;;;20.98;69.62
7524;BME280;3803;51.666;7.630;2023-06-26T00:29:24;100665.88;;;20.94;69.60
7524;BME280;3803;51.666;7.630;2023-06-26T00:29:45;100661.50;;;20.91;69.62
7524;BME280;3803;51.666;7.630;2023-06-26T00:30:06;100665.88;;;20.95;69.53
7524;BME280;3803;51.666;7.630;2023-06-26T00:30:26;100678.97;;;21.03;69.55
7524;BME280;3803;51.666;7.630;2023-06-26T00:30:47;100670.25;;;20.98;69.61
7524;BME280;3803;51.666;7.630;2023-06-26T00:31:08;100669.34;;;20.99;69.45
7524;BME280;3803;51.666;7.630;2023-06-26T00:31:28;100671.09;;;21.00;69.51
7524;BME280;3803;51.666;7.630;2023-06-26T00:31:49;100670.19;;;21.00;69.38
7524;BME280;3803;51.666;7.630;2023-06-26T00:32:09;100679.03;;;21.02;69.51
7524;BME280;3803;51.666;7.630;2023-06-26T00:32:30;100674.69;;;20.96;69.33
7524;BME280;3803;51.666;7.630;2023-06-26T00:32:50;100672.84;;;21.01;69.42
7524;BME280;3803;51.666;7.630;2023-06-26T00:33:11;100675.56;;;20.98;69.41
7524;BME280;3803;51.666;7.630;2023-06-26T00:33:32;100668.50;;;20.97;69.53
7524;BME280;3803;51.666;7.630;2023-06-26T00:33:52;100669.34;;;20.98;69.61
7524;BME280;3803;51.666;7.630;2023-06-26T00:34:13;100669.44;;;20.93;69.53
7524;BME280;3803;51.666;7.630;2023-06-26T00:34:35;100673.81;;;20.95;69.45
7524;BME280;3803;51.666;7.630;2023-06-26T00:34:55;100672.09;;;20.93;69.55
7524;BME280;3803;51.666;7.630;2023-06-26T00:35:16;100672.06;;;20.94;69.52
7524;BME280;3803;51.666;7.630;2023-06-26T00:35:38;100667.69;;;20.92;69.35
7524;BME280;3803;51.666;7.630;2023-06-26T00:35:59;100665.88;;;20.94;69.45
7524;BME280;3803;51.666;7.630;2023-06-26T00:36:20;100679.03;;;21.00;69.38
7524;BME280;3803;51.666;7.630;2023-06-26T00:36:43;100669.44;;;20.94;69.53
7524;BME280;3803;51.666;7.630;2023-06-26T00:37:03;100672.94;;;20.95;69.37
7524;BME280;3803;51.666;7.630;2023-06-26T00:37:25;100669.44;;;20.93;69.38
7524;BME280;3803;51.666;7.630;2023-06-26T00:37:46;100662.47;;;20.89;69.29
7524;BME280;3803;51.666;7.630;2023-06-26T00:38:06;100669.44;;;20.93;69.21
7524;BME280;3803;51.666;7.630;2023-06-26T00:38:27;100668.59;;;20.91;69.18
7524;BME280;3803;51.666;7.630;2023-06-26T00:38:49;100673.84;;;20.94;69.41
7524;BME280;3803;51.666;7.630;2023-06-26T00:39:10;100675.59;;;20.95;69.27
7524;BME280;3803;51.666;7.630;2023-06-26T00:39:30;100671.19;;;20.94;69.40
7524;BME280;3803;51.666;7.630;2023-06-26T00:39:51;100680.81;;;21.00;69.48
7524;BME280;3803;51.666;7.630;2023-06-26T00:40:12;100679.97;;;20.98;69.52
7524;BME280;3803;51.666;7.630;2023-06-26T00:40:33;100672.94;;;20.95;69.50
7524;BME280;3803;51.666;7.630;2023-06-26T00:40:53;100677.31;;;20.98;69.33
7524;BME280;3803;51.666;7.630;2023-06-26T00:41:15;100680.84;;;20.98;69.45
7524;BME280;3803;51.666;7.630;2023-06-26T00:41:37;100672.00;;;20.98;69.43
7524;BME280;3803;51.666;7.630;2023-06-26T00:41:57;100672.91;;;20.98;69.40
7524;BME280;3803;51.666;7.630;2023-06-26T00:42:18;100670.25;;;20.96;69.28
7524;BME280;3803;51.666;7.630;2023-06-26T00:42:39;100675.56;;;20.96;69.39
7524;BME280;3803;51.666;7.630;2023-06-26T00:43:00;100678.22;;;20.98;69.35
7524;BME280;3803;51.666;7.630;2023-06-26T00:43:20;100665.88;;;20.94;69.08
7524;BME280;3803;51.666;7.630;2023-06-26T00:43:42;100658.91;;;20.90;69.16
7524;BME280;3803;51.666;7.630;2023-06-26T00:44:05;100670.28;;;20.95;69.08
7524;BME280;3803;51.666;7.630;2023-06-26T00:44:49;100679.94;;;20.99;69.02
7524;BME280;3803;51.666;7.630;2023-06-26T00:45:10;100668.63;;;20.89;69.00
7524;BME280;3803;51.666;7.630;2023-06-26T00:45:31;100671.28;;;20.88;68.88
7524;BME280;3803;51.666;7.630;2023-06-26T00:45:52;100665.97;;;20.88;68.82
7524;BME280;3803;51.666;7.630;2023-06-26T00:46:14;100674.75;;;20.91;68.96
7524;BME280;3803;51.666;7.630;2023-06-26T00:46:35;100671.28;;;20.89;68.95
7524;BME280;3803;51.666;7.630;2023-06-26T00:46:56;100666.88;;;20.87;69.15
7524;BME280;3803;51.666;7.630;2023-06-26T00:47:17;100666.03;;;20.85;69.21
7524;BME280;3803;51.666;7.630;2023-06-26T00:47:38;100671.28;;;20.89;69.23
7524;BME280;3803;51.666;7.630;2023-06-26T00:48:00;100665.16;;;20.84;69.23
7524;BME280;3803;51.666;7.630;2023-06-26T00:48:22;100659.00;;;20.84;69.19
7524;BME280;3803;51.666;7.630;2023-06-26T00:48:46;100668.63;;;20.88;69.31
7524;BME280;3803;51.666;7.630;2023-06-26T00:49:08;100666.09;;;20.81;69.31
7524;BME280;3803;51.666;7.630;2023-06-26T00:49:28;100667.84;;;20.82;69.39
7524;BME280;3803;51.666;7.630;2023-06-26T00:49:50;100661.72;;;20.80;69.42
7524;BME280;3803;51.666;7.630;2023-06-26T00:50:11;100664.34;;;20.80;69.54
7524;BME280;3803;51.666;7.630;2023-06-26T00:50:32;100660.81;;;20.81;69.43
7524;BME280;3803;51.666;7.630;2023-06-26T00:50:52;100664.34;;;20.80;69.44
7524;BME280;3803;51.666;7.630;2023-06-26T00:51:13;100669.59;;;20.84;69.34
7524;BME280;3803;51.666;7.630;2023-06-26T00:51:34;100664.34;;;20.80;69.30
7524;BME280;3803;51.666;7.630;2023-06-26T00:51:56;100655.59;;;20.75;69.33
7524;BME280;3803;51.666;7.630;2023-06-26T00:52:17;100664.34;;;20.80;69.43
7524;BME280;3803;51.666;7.630;2023-06-26T00:52:38;100664.38;;;20.77;69.52
7524;BME280;3803;51.666;7.630;2023-06-26T00:53:00;100661.72;;;20.79;69.61
7524;BME280;3803;51.666;7.630;2023-06-26T00:53:22;100662.66;;;20.76;69.35
7524;BME280;3803;51.666;7.630;2023-06-26T00:53:42;100674.06;;;20.81;69.42
7524;BME280;3803;51.666;7.630;2023-06-26T00:54:04;100666.13;;;20.78;69.29
7524;BME280;3803;51.666;7.630;2023-06-26T00:54:26;100658.25;;;20.75;69.34
7524;BME280;3803;51.666;7.630;2023-06-26T00:54:47;100669.69;;;20.77;69.33
7524;BME280;3803;51.666;7.630;2023-06-26T00:55:08;100668.84;;;20.77;69.36
7524;BME280;3803;51.666;7.630;2023-06-26T00:55:30;100660.06;;;20.73;69.08
7524;BME280;3803;51.666;7.630;2023-06-26T00:55:51;100667.13;;;20.73;69.35
7524;BME280;3803;51.666;7.630;2023-06-26T00:56:12;100671.50;;;20.75;69.23
7524;BME280;3803;51.666;7.630;2023-06-26T00:56:32;100669.69;;;20.77;69.14
7524;BME280;3803;51.666;7.630;2023-06-26T00:56:53;100667.13;;;20.71;69.21
7524;BME280;3803;51.666;7.630;2023-06-26T00:57:14;100663.63;;;20.67;69.20
7524;BME280;3803;51.666;7.630;2023-06-26T00:57:34;100668.84;;;20.75;68.89
7524;BME280;3803;51.666;7.630;2023-06-26T00:57:55;100662.75;;;20.70;68.78
7524;BME280;3803;51.666;7.630;2023-06-26T00:58:16;100656.53;;;20.69;69.00
7524;BME280;3803;51.666;7.630;2023-06-26T00:58:37;100655.66;;;20.67;68.76
7524;BME280;3803;51.666;7.630;2023-06-26T00:58:57;100670.69;;;20.70;68.78
7524;BME280;3803;51.666;7.630;2023-06-26T00:59:20;100662.72;;;20.73;69.06
7524;BME280;3803;51.666;7.630;2023-06-26T00:59:42;100652.16;;;20.67;68.68
7524;BME280;3803;51.666;7.630;2023-06-26T01:00:03;100675.06;;;20.73;68.96
7524;BME280;3803;51.666;7.630;2023-06-26T01:00:24;100657.50;;;20.64;68.68
7524;BME280;3803;51.666;7.630;2023-06-26T01:00:51;100662.75;;;20.70;68.82
7524;BME280;3803;51.666;7.630;2023-06-26T01:01:13;100665.38;;;20.70;68.82
7524;BME280;3803;51.666;7.630;2023-06-26T01:01:38;100664.56;;;20.65;68.70
7524;BME280;3803;51.666;7.630;2023-06-26T01:01:58;100658.38;;;20.66;68.71
7524;BME280;3803;51.666;7.630;2023-06-26T01:02:19;100655.72;;;20.64;68.79
7524;BME280;3803;51.666;7.630;2023-06-26T01:02:40;100652.19;;;20.64;68.77
7524;BME280;3803;51.666;7.630;2023-06-26T01:03:01;100662.75;;;20.68;68.68
7524;BME280;3803;51.666;7.630;2023-06-26T01:03:24;100653.97;;;20.63;68.60
7524;BME280;3803;51.666;7.630;2023-06-26T01:03:45;100658.38;;;20.64;68.64
7524;BME280;3803;51.666;7.630;2023-06-26T01:04:06;100671.56;;;20.69;68.37
7524;BME280;3803;51.666;7.630;2023-06-26T01:04:27;100660.09;;;20.68;68.46
7524;BME280;3803;51.666;7.630;2023-06-26T01:04:49;100659.31;;;20.62;68.37
7524;BME280;3803;51.666;7.630;2023-06-26T01:05:10;100653.09;;;20.63;68.51
7524;BME280;3803;51.666;7.630;2023-06-26T01:05:32;100659.28;;;20.65;68.58
7524;BME280;3803;51.666;7.630;2023-06-26T01:05:54;100662.75;;;20.68;68.75
7524;BME280;3803;51.666;7.630;2023-06-26T01:06:17;100644.28;;;20.62;68.43
7524;BME280;3803;51.666;7.630;2023-06-26T01:06:38;100645.19;;;20.61;68.63
7524;BME280;3803;51.666;7.630;2023-06-26T01:06:59;100650.50;;;20.61;68.65
7524;BME280;3803;51.666;7.630;2023-06-26T01:07:22;100654.84;;;20.64;68.57
7524;BME280;3803;51.666;7.630;2023-06-26T01:07:43;100657.47;;;20.67;68.70
7524;BME280;3803;51.666;7.630;2023-06-26T01:08:04;100647.78;;;20.63;68.79
7524;BME280;3803;51.666;7.630;2023-06-26T01:08:25;100648.69;;;20.62;68.54
7524;BME280;3803;51.666;7.630;2023-06-26T01:08:48;100649.53;;;20.64;68.58
7524;BME280;3803;51.666;7.630;2023-06-26T01:09:09;100645.19;;;20.61;68.54
7524;BME280;3803;51.666;7.630;2023-06-26T01:09:42;100662.75;;;20.68;68.54
7524;BME280;3803;51.666;7.630;2023-06-26T01:10:04;100651.28;;;20.66;68.55
7524;BME280;3803;51.666;7.630;2023-06-26T01:10:25;100649.59;;;20.62;68.57
7524;BME280;3803;51.666;7.630;2023-06-26T01:10:48;100643.41;;;20.62;68.65
7524;BME280;3803;51.666;7.630;2023-06-26T01:11:09;100639.84;;;20.63;68.48
7524;BME280;3803;51.666;7.630;2023-06-26T01:11:30;100648.69;;;20.63;68.46
7524;BME280;3803;51.666;7.630;2023-06-26T01:11:52;100650.50;;;20.61;68.42
7524;BME280;3803;51.666;7.630;2023-06-26T01:12:13;100663.66;;;20.66;68.26
7524;BME280;3803;51.666;7.630;2023-06-26T01:12:35;100652.19;;;20.64;68.29
7524;BME280;3803;51.666;7.630;2023-06-26T01:12:57;100646.13;;;20.57;68.15
7524;BME280;3803;51.666;7.630;2023-06-26T01:13:18;100640.00;;;20.53;68.17
7524;BME280;3803;51.666;7.630;2023-06-26T01:13:41;100649.69;;;20.56;68.01
7524;BME280;3803;51.666;7.630;2023-06-26T01:14:02;100648.78;;;20.55;68.11
7524;BME280;3803;51.666;7.630;2023-06-26T01:14:23;100646.19;;;20.54;68.02
7524;BME280;3803;51.666;7.630;2023-06-26T01:14:44;100650.56;;;20.57;68.26
7524;BME280;3803;51.666;7.630;2023-06-26T01:15:06;100648.75;;;20.59;68.11
7524;BME280;3803;51.666;7.630;2023-06-26T01:15:27;100644.38;;;20.56;68.19
7524;BME280;3803;51.666;7.630;2023-06-26T01:15:48;100647.84;;;20.60;67.92
7524;BME280;3803;51.666;7.630;2023-06-26T01:16:10;100645.25;;;20.57;67.91
7524;BME280;3803;51.666;7.630;2023-06-26T01:16:31;100650.56;;;20.57;67.82
7524;BME280;3803;51.666;7.630;2023-06-26T01:16:52;100649.69;;;20.54;67.87
7524;BME280;3803;51.666;7.630;2023-06-26T01:17:18;100646.09;;;20.59;67.80
7524;BME280;3803;51.666;7.630;2023-06-26T01:17:39;100640.00;;;20.53;67.81
7524;BME280;3803;51.666;7.630;2023-06-26T01:18:00;100634.69;;;20.55;67.74
7524;BME280;3803;51.666;7.630;2023-06-26T01:18:25;100646.94;;;20.61;67.60
7524;BME280;3803;51.666;7.630;2023-06-26T01:18:46;100638.16;;;20.57;67.73
7524;BME280;3803;51.666;7.630;2023-06-26T01:19:13;100641.72;;;20.58;67.65
7524;BME280;3803;51.666;7.630;2023-06-26T01:19:35;100642.63;;;20.57;67.49
7524;BME280;3803;51.666;7.630;2023-06-26T01:19:56;100639.09;;;20.54;67.41
7524;BME280;3803;51.666;7.630;2023-06-26T01:20:17;100639.97;;;20.57;67.51
7524;BME280;3803;51.666;7.630;2023-06-26T01:20:40;100646.13;;;20.57;67.30
7524;BME280;3803;51.666;7.630;2023-06-26T01:21:03;100634.69;;;20.53;67.29
7524;BME280;3803;51.666;7.630;2023-06-26T01:21:25;100635.59;;;20.52;67.18
7524;BME280;3803;51.666;7.630;2023-06-26T01:21:58;100631.22;;;20.48;67.10
7524;BME280;3803;51.666;7.630;2023-06-26T01:22:33;100637.41;;;20.50;66.86
7524;BME280;3803;51.666;7.630;2023-06-26T01:23:49;100648.84;;;20.52;66.87
7524;BME280;3803;51.666;7.630;2023-06-26T01:24:17;100640.09;;;20.47;66.82
7524;BME280;3803;51.666;7.630;2023-06-26T01:25:01;100641.88;;;20.45;66.78
7524;BME280;3803;51.666;7.630;2023-06-26T01:25:33;100652.44;;;20.48;66.82
7524;BME280;3803;51.666;7.630;2023-06-26T01:26:36;100640.13;;;20.44;66.65
7524;BME280;3803;51.666;7.630;2023-06-26T01:26:59;100646.34;;;20.43;66.67
7524;BME280;3803;51.666;7.630;2023-06-26T01:27:22;100643.69;;;20.43;66.68
7524;BME280;3803;51.666;7.630;2023-06-26T01:27:48;100639.25;;;20.44;66.79
7524;BME280;3803;51.666;7.630;2023-06-26T01:28:11;100638.41;;;20.40;67.02
7524;BME280;3803;51.666;7.630;2023-06-26T01:28:35;100644.59;;;20.42;66.84
7524;BME280;3803;51.666;7.630;2023-06-26T01:28:58;100632.25;;;20.39;66.82
7524;BME280;3803;51.666;7.630;2023-06-26T01:29:20;100631.38;;;20.39;66.85
7524;BME280;3803;51.666;7.630;2023-06-26T01:29:44;100636.66;;;20.42;67.06
7524;BME280;3803;51.666;7.630;2023-06-26T01:30:07;100634.91;;;20.41;67.02
7524;BME280;3803;51.666;7.630;2023-06-26T01:30:30;100633.13;;;20.40;67.02
7524;BME280;3803;51.666;7.630;2023-06-26T01:30:51;100641.88;;;20.45;67.05
7524;BME280;3803;51.666;7.630;2023-06-26T01:31:13;100627.81;;;20.40;67.24
7524;BME280;3803;51.666;7.630;2023-06-26T01:31:34;100633.13;;;20.40;67.33
7524;BME280;3803;51.666;7.630;2023-06-26T01:31:56;100627.88;;;20.37;67.44
7524;BME280;3803;51.666;7.630;2023-06-26T01:32:17;100638.38;;;20.43;67.48
7524;BME280;3803;51.666;7.630;2023-06-26T01:32:39;100629.63;;;20.36;67.26
7524;BME280;3803;51.666;7.630;2023-06-26T01:33:00;100623.50;;;20.33;67.44
7524;BME280;3803;51.666;7.630;2023-06-26T01:33:21;100624.38;;;20.35;67.40
7524;BME280;3803;51.666;7.630;2023-06-26T01:33:46;100629.63;;;20.38;67.52
7524;BME280;3803;51.666;7.630;2023-06-26T01:34:07;100627.94;;;20.34;67.46
7524;BME280;3803;51.666;7.630;2023-06-26T01:34:29;100623.50;;;20.34;67.48
7524;BME280;3803;51.666;7.630;2023-06-26T01:34:50;100638.47;;;20.37;67.55
7524;BME280;3803;51.666;7.630;2023-06-26T01:35:13;100627.94;;;20.34;67.54
7524;BME280;3803;51.666;7.630;2023-06-26T01:35:35;100634.97;;;20.35;67.68
7524;BME280;3803;51.666;7.630;2023-06-26T01:36:00;100639.38;;;20.36;67.60
7524;BME280;3803;51.666;7.630;2023-06-26T01:36:22;100621.81;;;20.30;67.86
7524;BME280;3803;51.666;7.630;2023-06-26T01:36:44;100617.38;;;20.31;67.71
7524;BME280;3803;51.666;7.630;2023-06-26T01:37:06;100628.84;;;20.31;67.59
7524;BME280;3803;51.666;7.630;2023-06-26T01:37:28;100630.66;;;20.29;67.76
7524;BME280;3803;51.666;7.630;2023-06-26T01:37:48;100633.25;;;20.32;67.78
7524;BME280;3803;51.666;7.630;2023-06-26T01:38:33;100636.75;;;20.33;67.55
7524;BME280;3803;51.666;7.630;2023-06-26T01:38:55;100633.25;;;20.31;67.63
7524;BME280;3803;51.666;7.630;2023-06-26T01:39:18;100629.78;;;20.28;67.56
7524;BME280;3803;51.666;7.630;2023-06-26T01:39:39;100624.53;;;20.24;67.69
7524;BME280;3803;51.666;7.630;2023-06-26T01:40:00;100614.84;;;20.23;67.66
7524;BME280;3803;51.666;7.630;2023-06-26T01:40:20;100624.53;;;20.24;67.81
7524;BME280;3803;51.666;7.630;2023-06-26T01:40:41;100622.81;;;20.21;67.59
7524;BME280;3803;51.666;7.630;2023-06-26T01:41:02;100632.50;;;20.24;67.59
7524;BME280;3803;51.666;7.630;2023-06-26T01:41:24;100629.81;;;20.25;67.49
7524;BME280;3803;51.666;7.630;2023-06-26T01:41:45;100616.66;;;20.19;67.45
7524;BME280;3803;51.666;7.630;2023-06-26T01:42:06;100612.28;;;20.18;67.51
7524;BME280;3803;51.666;7.630;2023-06-26T01:42:28;100616.69;;;20.18;67.40
7524;BME280;3803;51.666;7.630;2023-06-26T01:42:49;100628.94;;;20.25;67.56
7524;BME280;3803;51.666;7.630;2023-06-26T01:44:44;100613.16;;;20.17;67.37
7524;BME280;3803;51.666;7.630;2023-06-26T01:45:24;100629.03;;;20.19;67.47
7524;BME280;3803;51.666;7.630;2023-06-26T01:45:50;100633.41;;;20.21;67.17
7524;BME280;3803;51.666;7.630;2023-06-26T01:46:30;100625.53;;;20.17;67.27
7524;BME280;3803;51.666;7.630;2023-06-26T01:47:02;100612.38;;;20.10;67.27
7524;BME280;3803;51.666;7.630;2023-06-26T01:47:26;100622.94;;;20.12;67.23
7524;BME280;3803;51.666;7.630;2023-06-26T01:47:50;100621.16;;;20.12;67.33
7524;BME280;3803;51.666;7.630;2023-06-26T01:48:13;100624.75;;;20.10;67.07
7524;BME280;3803;51.666;7.630;2023-06-26T01:48:55;100621.13;;;20.17;67.18
7524;BME280;3803;51.666;7.630;2023-06-26T01:49:31;100625.53;;;20.15;67.07
7524;BME280;3803;51.666;7.630;2023-06-26T01:50:01;100616.75;;;20.13;67.18
7524;BME280;3803;51.666;7.630;2023-06-26T01:50:26;100609.72;;;20.10;66.97
7524;BME280;3803;51.666;7.630;2023-06-26T01:50:51;100614.16;;;20.10;66.89
7524;BME280;3803;51.666;7.630;2023-06-26T01:51:14;100612.38;;;20.09;67.11
7524;BME280;3803;51.666;7.630;2023-06-26T01:51:42;100612.38;;;20.09;66.72
7524;BME280;3803;51.666;7.630;2023-06-26T01:52:26;100622.94;;;20.12;66.65
7524;BME280;3803;51.666;7.630;2023-06-26T01:53:32;100610.69;;;20.05;66.59
7524;BME280;3803;51.666;7.630;2023-06-26T01:53:56;100621.22;;;20.09;66.52
7524;BME280;3803;51.666;7.630;2023-06-26T01:54:21;100622.13;;;20.08;66.46
7524;BME280;3803;51.666;7.630;2023-06-26T01:55:36;100619.47;;;20.07;66.51
7524;BME280;3803;51.666;7.630;2023-06-26T01:56:06;100623.88;;;20.08;66.51
7524;BME280;3803;51.666;7.630;2023-06-26T01:56:28;100624.78;;;20.07;66.80
7524;BME280;3803;51.666;7.630;2023-06-26T01:56:52;100612.44;;;20.06;66.79
7524;BME280;3803;51.666;7.630;2023-06-26T01:57:17;100615.00;;;20.10;66.84
7524;BME280;3803;51.666;7.630;2023-06-26T01:57:39;100609.72;;;20.09;66.76
7524;BME280;3803;51.666;7.630;2023-06-26T01:58:00;100623.78;;;20.14;66.66
7524;BME280;3803;51.666;7.630;2023-06-26T01:58:23;100613.22;;;20.12;66.64
7524;BME280;3803;51.666;7.630;2023-06-26T01:58:46;100622.94;;;20.12;66.42
7524;BME280;3803;51.666;7.630;2023-06-26T01:59:08;100612.38;;;20.09;66.44
7524;BME280;3803;51.666;7.630;2023-06-26T01:59:31;100608.03;;;20.03;66.49
7524;BME280;3803;51.666;7.630;2023-06-26T01:59:55;100616.81;;;20.08;66.61
7524;BME280;3803;51.666;7.630;2023-06-26T02:00:18;100613.38;;;20.02;66.59
7524;BME280;3803;51.666;7.630;2023-06-26T02:00:40;100614.22;;;20.04;66.40
7524;BME280;3803;51.666;7.630;2023-06-26T02:01:01;100615.97;;;20.05;66.55
7524;BME280;3803;51.666;7.630;2023-06-26T02:01:22;100612.50;;;19.99;66.36
7524;BME280;3803;51.666;7.630;2023-06-26T02:01:43;100614.22;;;20.04;66.13
7524;BME280;3803;51.666;7.630;2023-06-26T02:02:07;100610.75;;;20.02;66.25
7524;BME280;3803;51.666;7.630;2023-06-26T02:02:31;100621.28;;;20.05;66.16
7524;BME280;3803;51.666;7.630;2023-06-26T02:02:52;100609.88;;;19.99;66.14
7524;BME280;3803;51.666;7.630;2023-06-26T02:03:13;100616.91;;;20.02;66.21
7524;BME280;3803;51.666;7.630;2023-06-26T02:03:33;100603.72;;;19.97;65.94
7524;BME280;3803;51.666;7.630;2023-06-26T02:03:54;100606.38;;;19.97;66.04
7524;BME280;3803;51.666;7.630;2023-06-26T02:04:15;100619.53;;;20.04;65.86
7524;BME280;3803;51.666;7.630;2023-06-26T02:04:35;100611.69;;;19.96;65.76
7524;BME280;3803;51.666;7.630;2023-06-26T02:04:56;100616.06;;;19.98;65.77